X  Cerrar Datos meteorológicos de aviación METAR        LEAL ELCHE/ALTET
Temperatura
20°C Temperatura
12°C Punto de rocío
60% Humedad



Viento
13 KM/H
8 MPH
4 M/S
7 NUDO



20°
NNE
Condiciones actuales

Mostly Sunny Mayormente soleado
Presión 1020 (hPa) - 30.12 (inHg)
Visibilidad 30 (milla) - 48 (km)
Aeropuerto
Código de aeropuerto LEAL

localidad: ELCHE/ALTET
Distancia: 14 (km)

Metar:
METAR LEAL 230830Z 02007KT 340V070 9999 FEW050 20/12 Q1020 NOSIG

Hora: 23-10-2021 10:30 CEST